sensor_id;sensor_type;location;lat;lon;timestamp;pressure;altitude;pressure_sealevel;temperature;humidity
70323;BME280;57735;56.264;43.898;2022-12-10T00:00:00;100985.91;;;-2.37;76.25
70323;BME280;57735;56.264;43.898;2022-12-10T00:02:31;100988.50;;;-2.37;76.47
70323;BME280;57735;56.264;43.898;2022-12-10T00:05:01;100989.31;;;-2.35;76.56
70323;BME280;57735;56.264;43.898;2022-12-10T00:07:33;100989.16;;;-2.32;76.47
70323;BME280;57735;56.264;43.898;2022-12-10T00:10:05;100987.41;;;-2.32;76.56
70323;BME280;57735;56.264;43.898;2022-12-10T00:12:36;100990.75;;;-2.28;76.63
70323;BME280;57735;56.264;43.898;2022-12-10T00:15:07;100985.44;;;-2.25;76.55
70323;BME280;57735;56.264;43.898;2022-12-10T00:17:38;100986.28;;;-2.25;76.39
70323;BME280;57735;56.264;43.898;2022-12-10T00:20:09;100985.47;;;-2.27;76.45
70323;BME280;57735;56.264;43.898;2022-12-10T00:22:40;100985.44;;;-2.25;76.45
70323;BME280;57735;56.264;43.898;2022-12-10T00:25:11;100977.66;;;-2.27;76.34
70323;BME280;57735;56.264;43.898;2022-12-10T00:27:44;100980.09;;;-2.22;76.45
70323;BME280;57735;56.264;43.898;2022-12-10T00:30:15;100976.47;;;-2.18;76.38
70323;BME280;57735;56.264;43.898;2022-12-10T00:32:46;100964.22;;;-2.18;76.20
70323;BME280;57735;56.264;43.898;2022-12-10T00:35:17;100966.78;;;-2.16;76.37
70323;BME280;57735;56.264;43.898;2022-12-10T00:37:50;100972.75;;;-2.13;76.42
70323;BME280;57735;56.264;43.898;2022-12-10T00:40:21;100969.34;;;-2.15;76.33
70323;BME280;57735;56.264;43.898;2022-12-10T00:42:52;100968.44;;;-2.14;76.36
70323;BME280;57735;56.264;43.898;2022-12-10T00:45:23;100964.97;;;-2.14;76.37
70323;BME280;57735;56.264;43.898;2022-12-10T00:47:54;100963.22;;;-2.14;76.43
70323;BME280;57735;56.264;43.898;2022-12-10T00:50:27;100966.66;;;-2.13;76.46
70323;BME280;57735;56.264;43.898;2022-12-10T00:52:57;100958.84;;;-2.13;76.57
70323;BME280;57735;56.264;43.898;2022-12-10T00:55:28;100955.31;;;-2.12;76.46
70323;BME280;57735;56.264;43.898;2022-12-10T00:57:59;100961.44;;;-2.13;76.66
70323;BME280;57735;56.264;43.898;2022-12-10T01:00:33;100951.00;;;-2.13;76.58
70323;BME280;57735;56.264;43.898;2022-12-10T01:03:03;100955.38;;;-2.14;76.28
70323;BME280;57735;56.264;43.898;2022-12-10T01:05:34;100950.16;;;-2.14;76.57
70323;BME280;57735;56.264;43.898;2022-12-10T01:08:05;100954.47;;;-2.13;76.36
70323;BME280;57735;56.264;43.898;2022-12-10T01:10:36;100957.06;;;-2.13;76.36
70323;BME280;57735;56.264;43.898;2022-12-10T01:13:07;100953.66;;;-2.15;76.22
70323;BME280;57735;56.264;43.898;2022-12-10T01:15:40;100953.56;;;-2.12;76.23
70323;BME280;57735;56.264;43.898;2022-12-10T01:18:14;100948.28;;;-2.10;76.07
70323;BME280;57735;56.264;43.898;2022-12-10T01:20:44;100959.53;;;-2.08;76.26
70323;BME280;57735;56.264;43.898;2022-12-10T01:23:15;100955.09;;;-2.06;76.27
70323;BME280;57735;56.264;43.898;2022-12-10T01:25:46;100950.78;;;-2.07;76.13
70323;BME280;57735;56.264;43.898;2022-12-10T01:28:17;100949.97;;;-2.09;76.11
70323;BME280;57735;56.264;43.898;2022-12-10T01:30:47;100941.25;;;-2.08;76.34
70323;BME280;57735;56.264;43.898;2022-12-10T01:33:19;100954.28;;;-2.08;76.46
70323;BME280;57735;56.264;43.898;2022-12-10T01:35:49;100939.38;;;-2.04;76.28
70323;BME280;57735;56.264;43.898;2022-12-10T01:38:20;100935.78;;;-2.02;76.35
70323;BME280;57735;56.264;43.898;2022-12-10T01:40:51;100940.06;;;-2.01;75.89
70323;BME280;57735;56.264;43.898;2022-12-10T01:43:22;100945.38;;;-2.02;75.81
70323;BME280;57735;56.264;43.898;2022-12-10T01:45:52;100943.75;;;-2.05;76.07
70323;BME280;57735;56.264;43.898;2022-12-10T01:48:23;100942.81;;;-2.04;76.15
70323;BME280;57735;56.264;43.898;2022-12-10T01:50:54;100937.53;;;-2.02;76.22
70323;BME280;57735;56.264;43.898;2022-12-10T01:53:25;100942.56;;;-1.98;76.02
70323;BME280;57735;56.264;43.898;2022-12-10T01:55:56;100938.06;;;-1.94;75.91
70323;BME280;57735;56.264;43.898;2022-12-10T01:58:26;100934.56;;;-1.93;75.54
70323;BME280;57735;56.264;43.898;2022-12-10T02:01:21;100940.56;;;-1.91;75.42
70323;BME280;57735;56.264;43.898;2022-12-10T02:06:59;100951.69;;;-1.86;75.21
70323;BME280;57735;56.264;43.898;2022-12-10T02:09:39;100942.16;;;-1.87;75.22
70323;BME280;57735;56.264;43.898;2022-12-10T02:12:21;100939.56;;;-1.87;74.97
70323;BME280;57735;56.264;43.898;2022-12-10T02:15:18;100937.91;;;-1.90;74.71
70323;BME280;57735;56.264;43.898;2022-12-10T02:17:58;100938.94;;;-1.94;74.68
70323;BME280;57735;56.264;43.898;2022-12-10T02:20:38;100946.81;;;-1.95;74.77
70323;BME280;57735;56.264;43.898;2022-12-10T02:23:18;100937.22;;;-1.95;74.60
70323;BME280;57735;56.264;43.898;2022-12-10T02:29:23;100939.16;;;-2.00;74.59
70323;BME280;57735;56.264;43.898;2022-12-10T02:32:14;100947.91;;;-2.01;74.44
70323;BME280;57735;56.264;43.898;2022-12-10T02:34:50;100942.81;;;-2.04;74.17
70323;BME280;57735;56.264;43.898;2022-12-10T02:37:27;100943.69;;;-2.03;74.44
70323;BME280;57735;56.264;43.898;2022-12-10T02:40:07;100945.19;;;-1.98;74.19
70323;BME280;57735;56.264;43.898;2022-12-10T02:42:41;100948.63;;;-1.97;73.94
70323;BME280;57735;56.264;43.898;2022-12-10T02:45:13;100948.63;;;-1.97;73.83
70323;BME280;57735;56.264;43.898;2022-12-10T02:47:44;100939.91;;;-1.96;73.81
70323;BME280;57735;56.264;43.898;2022-12-10T02:50:15;100945.13;;;-1.96;73.96
70323;BME280;57735;56.264;43.898;2022-12-10T02:52:49;100938.13;;;-1.96;73.78
70323;BME280;57735;56.264;43.898;2022-12-10T02:55:20;100939.03;;;-1.97;73.76
70323;BME280;57735;56.264;43.898;2022-12-10T02:58:15;100926.91;;;-1.98;73.50
70323;BME280;57735;56.264;43.898;2022-12-10T03:01:02;100936.44;;;-1.97;73.70
70323;BME280;57735;56.264;43.898;2022-12-10T03:03:46;100932.97;;;-1.97;73.73
70323;BME280;57735;56.264;43.898;2022-12-10T03:06:36;100933.81;;;-1.97;73.33
70323;BME280;57735;56.264;43.898;2022-12-10T03:09:20;100930.31;;;-1.96;73.48
70323;BME280;57735;56.264;43.898;2022-12-10T03:11:59;100929.50;;;-1.98;73.41
70323;BME280;57735;56.264;43.898;2022-12-10T03:14:33;100932.19;;;-1.99;73.29
70323;BME280;57735;56.264;43.898;2022-12-10T03:17:04;100927.81;;;-1.99;73.47
70323;BME280;57735;56.264;43.898;2022-12-10T03:19:42;100933.81;;;-1.97;73.20
70323;BME280;57735;56.264;43.898;2022-12-10T03:22:18;100935.53;;;-1.96;73.38
70323;BME280;57735;56.264;43.898;2022-12-10T03:24:50;100940.69;;;-1.94;73.31
70323;BME280;57735;56.264;43.898;2022-12-10T03:27:23;100927.69;;;-1.96;72.94
70323;BME280;57735;56.264;43.898;2022-12-10T03:29:56;100929.50;;;-1.98;73.00
70323;BME280;57735;56.264;43.898;2022-12-10T03:32:29;100931.25;;;-1.98;73.14
70323;BME280;57735;56.264;43.898;2022-12-10T03:35:01;100923.50;;;-2.00;73.21
70323;BME280;57735;56.264;43.898;2022-12-10T03:37:35;100933.94;;;-2.00;73.18
70323;BME280;57735;56.264;43.898;2022-12-10T03:40:08;100933.19;;;-2.02;72.85
70323;BME280;57735;56.264;43.898;2022-12-10T03:42:40;100930.69;;;-2.05;72.81
70323;BME280;57735;56.264;43.898;2022-12-10T03:45:11;100936.94;;;-2.09;72.87
70323;BME280;57735;56.264;43.898;2022-12-10T03:47:42;100928.13;;;-2.06;73.34
70323;BME280;57735;56.264;43.898;2022-12-10T03:50:13;100934.19;;;-2.06;73.09
70323;BME280;57735;56.264;43.898;2022-12-10T03:52:43;100941.25;;;-2.08;73.00
70323;BME280;57735;56.264;43.898;2022-12-10T03:55:14;100945.66;;;-2.10;72.76
70323;BME280;57735;56.264;43.898;2022-12-10T03:57:45;100952.81;;;-2.15;72.86
70323;BME280;57735;56.264;43.898;2022-12-10T04:00:16;100952.16;;;-2.20;72.70
70323;BME280;57735;56.264;43.898;2022-12-10T04:02:49;100937.41;;;-2.21;72.81
70323;BME280;57735;56.264;43.898;2022-12-10T04:05:20;100945.25;;;-2.21;73.06
70323;BME280;57735;56.264;43.898;2022-12-10T04:07:51;100943.44;;;-2.19;72.87
70323;BME280;57735;56.264;43.898;2022-12-10T04:10:22;100944.13;;;-2.16;72.78
70323;BME280;57735;56.264;43.898;2022-12-10T04:12:53;100945.94;;;-2.18;72.44
70323;BME280;57735;56.264;43.898;2022-12-10T04:15:43;100965.88;;;-2.15;72.88
70323;BME280;57735;56.264;43.898;2022-12-10T04:18:32;100951.13;;;-2.16;72.49
70323;BME280;57735;56.264;43.898;2022-12-10T04:21:03;100951.16;;;-2.18;72.37
70323;BME280;57735;56.264;43.898;2022-12-10T04:23:52;100950.69;;;-2.27;72.25
70323;BME280;57735;56.264;43.898;2022-12-10T04:26:42;100948.94;;;-2.27;72.49
70323;BME280;57735;56.264;43.898;2022-12-10T04:29:27;100952.44;;;-2.28;72.55
70323;BME280;57735;56.264;43.898;2022-12-10T04:31:59;100942.91;;;-2.29;72.58
70323;BME280;57735;56.264;43.898;2022-12-10T04:34:32;100955.13;;;-2.29;72.61
70323;BME280;57735;56.264;43.898;2022-12-10T04:37:03;100951.53;;;-2.27;72.64
70323;BME280;57735;56.264;43.898;2022-12-10T04:39:34;100959.31;;;-2.25;72.58
70323;BME280;57735;56.264;43.898;2022-12-10T04:42:06;100959.22;;;-2.22;72.42
70323;BME280;57735;56.264;43.898;2022-12-10T04:44:38;100958.41;;;-2.24;72.26
70323;BME280;57735;56.264;43.898;2022-12-10T04:47:10;100948.81;;;-2.24;72.25
70323;BME280;57735;56.264;43.898;2022-12-10T04:49:41;100950.56;;;-2.24;72.19
70323;BME280;57735;56.264;43.898;2022-12-10T04:52:15;100947.97;;;-2.24;72.48
70323;BME280;57735;56.264;43.898;2022-12-10T04:54:48;100949.66;;;-2.23;72.23
70323;BME280;57735;56.264;43.898;2022-12-10T04:57:19;100946.94;;;-2.20;72.41
70323;BME280;57735;56.264;43.898;2022-12-10T04:59:49;100947.75;;;-2.18;72.27
70323;BME280;57735;56.264;43.898;2022-12-10T05:02:20;100950.47;;;-2.21;72.19
70323;BME280;57735;56.264;43.898;2022-12-10T05:04:51;100941.72;;;-2.20;72.19
70323;BME280;57735;56.264;43.898;2022-12-10T05:07:22;100932.19;;;-2.21;72.01
70323;BME280;57735;56.264;43.898;2022-12-10T05:09:52;100943.34;;;-2.18;72.24
70323;BME280;57735;56.264;43.898;2022-12-10T05:12:23;100946.03;;;-2.19;72.01
70323;BME280;57735;56.264;43.898;2022-12-10T05:14:54;100958.41;;;-2.24;71.86
70323;BME280;57735;56.264;43.898;2022-12-10T05:17:25;100952.38;;;-2.26;71.88
70323;BME280;57735;56.264;43.898;2022-12-10T05:19:56;100953.34;;;-2.29;71.83
70323;BME280;57735;56.264;43.898;2022-12-10T05:22:27;100968.34;;;-2.34;71.70
70323;BME280;57735;56.264;43.898;2022-12-10T05:25:16;100965.91;;;-2.38;71.86
70323;BME280;57735;56.264;43.898;2022-12-10T05:27:47;100962.50;;;-2.40;72.15
70323;BME280;57735;56.264;43.898;2022-12-10T05:30:17;100945.16;;;-2.41;72.21
70323;BME280;57735;56.264;43.898;2022-12-10T05:32:49;100946.75;;;-2.37;72.48
70323;BME280;57735;56.264;43.898;2022-12-10T05:35:19;100929.13;;;-2.32;72.40
70323;BME280;57735;56.264;43.898;2022-12-10T05:37:50;100917.75;;;-2.31;72.20
70323;BME280;57735;56.264;43.898;2022-12-10T05:40:21;100917.72;;;-2.30;71.98
70323;BME280;57735;56.264;43.898;2022-12-10T05:42:52;100920.44;;;-2.33;71.99
70323;BME280;57735;56.264;43.898;2022-12-10T05:45:25;100925.72;;;-2.34;72.05
70323;BME280;57735;56.264;43.898;2022-12-10T05:47:56;100923.91;;;-2.32;72.02
70323;BME280;57735;56.264;43.898;2022-12-10T05:50:27;100929.13;;;-2.32;72.16
70323;BME280;57735;56.264;43.898;2022-12-10T05:52:58;100925.53;;;-2.30;71.86
70323;BME280;57735;56.264;43.898;2022-12-10T05:55:31;100930.66;;;-2.27;71.57
70323;BME280;57735;56.264;43.898;2022-12-10T05:58:03;100949.84;;;-2.28;71.88
70323;BME280;57735;56.264;43.898;2022-12-10T06:00:41;100970.66;;;-2.26;71.87
70323;BME280;57735;56.264;43.898;2022-12-10T06:03:12;100981.28;;;-2.31;71.79
70323;BME280;57735;56.264;43.898;2022-12-10T06:05:43;100977.00;;;-2.33;71.83
70323;BME280;57735;56.264;43.898;2022-12-10T06:08:14;100977.16;;;-2.36;71.70
70323;BME280;57735;56.264;43.898;2022-12-10T06:10:47;100965.00;;;-2.37;72.13
70323;BME280;57735;56.264;43.898;2022-12-10T06:13:17;100964.97;;;-2.36;72.04
70323;BME280;57735;56.264;43.898;2022-12-10T06:15:48;100953.66;;;-2.36;72.09
70323;BME280;57735;56.264;43.898;2022-12-10T06:18:19;100957.97;;;-2.35;72.24
70323;BME280;57735;56.264;43.898;2022-12-10T06:20:51;100962.19;;;-2.33;72.08
70323;BME280;57735;56.264;43.898;2022-12-10T06:23:22;100940.41;;;-2.32;72.13
70323;BME280;57735;56.264;43.898;2022-12-10T06:25:52;100946.44;;;-2.30;72.06
70323;BME280;57735;56.264;43.898;2022-12-10T06:28:23;100943.72;;;-2.27;71.97
70323;BME280;57735;56.264;43.898;2022-12-10T06:30:54;100955.06;;;-2.28;71.82
70323;BME280;57735;56.264;43.898;2022-12-10T06:33:25;100958.53;;;-2.27;72.02
70323;BME280;57735;56.264;43.898;2022-12-10T06:35:56;100956.66;;;-2.24;71.91
70323;BME280;57735;56.264;43.898;2022-12-10T06:38:27;100957.38;;;-2.20;71.66
70323;BME280;57735;56.264;43.898;2022-12-10T06:40:57;100956.47;;;-2.19;71.88
70323;BME280;57735;56.264;43.898;2022-12-10T06:43:31;100954.72;;;-2.19;71.59
70323;BME280;57735;56.264;43.898;2022-12-10T06:46:10;100953.03;;;-2.20;71.77
70323;BME280;57735;56.264;43.898;2022-12-10T06:48:42;100952.03;;;-2.17;71.72
70323;BME280;57735;56.264;43.898;2022-12-10T06:51:13;100961.50;;;-2.15;71.81
70323;BME280;57735;56.264;43.898;2022-12-10T06:53:44;100957.97;;;-2.14;71.78
70323;BME280;57735;56.264;43.898;2022-12-10T06:56:19;100953.63;;;-2.13;71.78
70323;BME280;57735;56.264;43.898;2022-12-10T06:58:50;100964.84;;;-2.11;71.74
70323;BME280;57735;56.264;43.898;2022-12-10T07:01:23;100960.59;;;-2.14;71.66
70323;BME280;57735;56.264;43.898;2022-12-10T07:03:58;100974.63;;;-2.16;71.76
70323;BME280;57735;56.264;43.898;2022-12-10T07:06:30;100965.09;;;-2.17;71.71
70323;BME280;57735;56.264;43.898;2022-12-10T07:09:02;100979.91;;;-2.18;71.65
70323;BME280;57735;56.264;43.898;2022-12-10T07:11:33;100970.19;;;-2.14;71.64
70323;BME280;57735;56.264;43.898;2022-12-10T07:14:04;100965.75;;;-2.12;71.74
70323;BME280;57735;56.264;43.898;2022-12-10T07:16:35;100964.84;;;-2.11;71.48
70323;BME280;57735;56.264;43.898;2022-12-10T07:19:06;100971.84;;;-2.12;71.95
70323;BME280;57735;56.264;43.898;2022-12-10T07:21:39;100967.47;;;-2.11;71.79
70323;BME280;57735;56.264;43.898;2022-12-10T07:24:15;100954.19;;;-2.05;71.69
70323;BME280;57735;56.264;43.898;2022-12-10T07:26:46;100955.75;;;-2.01;71.89
70323;BME280;57735;56.264;43.898;2022-12-10T07:29:19;100948.59;;;-1.96;71.65
70323;BME280;57735;56.264;43.898;2022-12-10T07:31:50;100958.81;;;-1.90;71.58
70323;BME280;57735;56.264;43.898;2022-12-10T07:34:21;100958.63;;;-1.85;71.52
70323;BME280;57735;56.264;43.898;2022-12-10T07:36:52;100958.53;;;-1.84;71.62
70323;BME280;57735;56.264;43.898;2022-12-10T07:39:23;100962.91;;;-1.84;71.56
70323;BME280;57735;56.264;43.898;2022-12-10T07:41:54;100953.19;;;-1.81;71.34
70323;BME280;57735;56.264;43.898;2022-12-10T07:44:25;100951.31;;;-1.77;71.34
70323;BME280;57735;56.264;43.898;2022-12-10T07:46:56;100949.56;;;-1.77;71.00
70323;BME280;57735;56.264;43.898;2022-12-10T07:49:29;100955.75;;;-1.79;71.29
70323;BME280;57735;56.264;43.898;2022-12-10T07:51:59;100963.53;;;-1.78;71.02
70323;BME280;57735;56.264;43.898;2022-12-10T07:54:30;100966.03;;;-1.74;71.08
70323;BME280;57735;56.264;43.898;2022-12-10T07:57:03;100950.16;;;-1.70;71.11
70323;BME280;57735;56.264;43.898;2022-12-10T07:59:34;100965.66;;;-1.65;70.90
70323;BME280;57735;56.264;43.898;2022-12-10T08:02:05;100957.09;;;-1.69;70.79
70323;BME280;57735;56.264;43.898;2022-12-10T08:04:36;100951.88;;;-1.69;71.17
70323;BME280;57735;56.264;43.898;2022-12-10T08:07:08;100944.75;;;-1.65;70.81
70323;BME280;57735;56.264;43.898;2022-12-10T08:09:39;100948.09;;;-1.62;70.82
70323;BME280;57735;56.264;43.898;2022-12-10T08:12:09;100943.75;;;-1.63;70.71
70323;BME280;57735;56.264;43.898;2022-12-10T08:14:42;100947.97;;;-1.59;70.85
70323;BME280;57735;56.264;43.898;2022-12-10T08:17:13;100940.06;;;-1.57;70.78
70323;BME280;57735;56.264;43.898;2022-12-10T08:19:44;100946.19;;;-1.58;70.61
70323;BME280;57735;56.264;43.898;2022-12-10T08:22:15;100941.09;;;-1.61;70.71
70323;BME280;57735;56.264;43.898;2022-12-10T08:24:46;100935.69;;;-1.57;70.84
70323;BME280;57735;56.264;43.898;2022-12-10T08:27:20;100936.72;;;-1.61;70.69
70323;BME280;57735;56.264;43.898;2022-12-10T08:29:51;100946.25;;;-1.60;70.93
70323;BME280;57735;56.264;43.898;2022-12-10T08:32:21;100934.91;;;-1.59;70.79
70323;BME280;57735;56.264;43.898;2022-12-10T08:34:52;100947.13;;;-1.59;70.91
70323;BME280;57735;56.264;43.898;2022-12-10T08:37:25;100942.56;;;-1.54;71.07
70323;BME280;57735;56.264;43.898;2022-12-10T08:39:56;100947.78;;;-1.54;70.69
70323;BME280;57735;56.264;43.898;2022-12-10T08:42:27;100936.47;;;-1.55;70.76
70323;BME280;57735;56.264;43.898;2022-12-10T08:44:57;100946.81;;;-1.52;70.76
70323;BME280;57735;56.264;43.898;2022-12-10T08:47:28;100933.66;;;-1.50;70.44
70323;BME280;57735;56.264;43.898;2022-12-10T08:49:59;100940.47;;;-1.46;70.48
70323;BME280;57735;56.264;43.898;2022-12-10T08:52:30;100927.25;;;-1.43;70.14
70323;BME280;57735;56.264;43.898;2022-12-10T08:55:00;100929.75;;;-1.40;70.27
70323;BME280;57735;56.264;43.898;2022-12-10T08:57:33;100916.34;;;-1.32;70.29
70323;BME280;57735;56.264;43.898;2022-12-10T09:00:04;100919.56;;;-1.26;69.85
70323;BME280;57735;56.264;43.898;2022-12-10T09:02:36;100913.41;;;-1.25;69.81
70323;BME280;57735;56.264;43.898;2022-12-10T09:05:07;100916.75;;;-1.21;69.88
70323;BME280;57735;56.264;43.898;2022-12-10T09:07:38;100911.31;;;-1.17;69.83
70323;BME280;57735;56.264;43.898;2022-12-10T09:10:10;100913.00;;;-1.16;69.73
70323;BME280;57735;56.264;43.898;2022-12-10T09:12:45;100915.84;;;-1.20;69.57
70323;BME280;57735;56.264;43.898;2022-12-10T09:15:16;100918.50;;;-1.22;69.54
70323;BME280;57735;56.264;43.898;2022-12-10T09:17:47;100927.28;;;-1.23;69.62
70323;BME280;57735;56.264;43.898;2022-12-10T09:20:17;100922.97;;;-1.24;70.01
70323;BME280;57735;56.264;43.898;2022-12-10T09:22:49;100930.19;;;-1.30;70.08
70323;BME280;57735;56.264;43.898;2022-12-10T09:25:20;100934.66;;;-1.32;70.13
70323;BME280;57735;56.264;43.898;2022-12-10T09:27:54;100926.94;;;-1.35;70.04
70323;BME280;57735;56.264;43.898;2022-12-10T09:30:25;100929.56;;;-1.35;70.24
70323;BME280;57735;56.264;43.898;2022-12-10T09:32:58;100926.09;;;-1.36;70.45
70323;BME280;57735;56.264;43.898;2022-12-10T09:35:29;100931.28;;;-1.34;70.41
70323;BME280;57735;56.264;43.898;2022-12-10T09:38:00;100931.34;;;-1.36;70.55
70323;BME280;57735;56.264;43.898;2022-12-10T09:40:40;100927.81;;;-1.35;70.46
70323;BME280;57735;56.264;43.898;2022-12-10T09:51:30;100914.38;;;-1.27;70.31
70323;BME280;57735;56.264;43.898;2022-12-10T09:54:10;100912.63;;;-1.27;70.06
70323;BME280;57735;56.264;43.898;2022-12-10T09:56:42;100909.28;;;-1.30;70.19
70323;BME280;57735;56.264;43.898;2022-12-10T09:59:20;100899.53;;;-1.27;70.17
70323;BME280;57735;56.264;43.898;2022-12-10T10:04:32;100894.97;;;-1.22;70.48
70323;BME280;57735;56.264;43.898;2022-12-10T10:07:04;100907.94;;;-1.19;70.50
70323;BME280;57735;56.264;43.898;2022-12-10T10:09:39;100914.88;;;-1.18;70.53
70323;BME280;57735;56.264;43.898;2022-12-10T10:12:15;100921.75;;;-1.17;70.58
70323;BME280;57735;56.264;43.898;2022-12-10T10:14:46;100913.06;;;-1.17;70.83
70323;BME280;57735;56.264;43.898;2022-12-10T10:17:35;100910.44;;;-1.17;70.81
70323;BME280;57735;56.264;43.898;2022-12-10T10:20:07;100901.84;;;-1.19;70.86
70323;BME280;57735;56.264;43.898;2022-12-10T10:22:40;100902.59;;;-1.17;70.90
70323;BME280;57735;56.264;43.898;2022-12-10T10:25:17;100901.63;;;-1.15;70.67
70323;BME280;57735;56.264;43.898;2022-12-10T10:27:48;100892.22;;;-1.19;70.63
70323;BME280;57735;56.264;43.898;2022-12-10T10:30:22;100908.91;;;-1.21;70.80
70323;BME280;57735;56.264;43.898;2022-12-10T10:32:56;100908.84;;;-1.20;70.93
70323;BME280;57735;56.264;43.898;2022-12-10T10:35:52;100897.66;;;-1.23;70.89
70323;BME280;57735;56.264;43.898;2022-12-10T10:38:28;100893.34;;;-1.24;71.21
70323;BME280;57735;56.264;43.898;2022-12-10T10:41:03;100895.88;;;-1.23;71.17
70323;BME280;57735;56.264;43.898;2022-12-10T10:43:42;100903.06;;;-1.28;71.32
70323;BME280;57735;56.264;43.898;2022-12-10T10:46:22;100910.13;;;-1.30;71.63
70323;BME280;57735;56.264;43.898;2022-12-10T10:49:13;100907.66;;;-1.33;71.66
70323;BME280;57735;56.264;43.898;2022-12-10T10:51:45;100910.34;;;-1.34;71.70
70323;BME280;57735;56.264;43.898;2022-12-10T11:00:26;100876.13;;;-1.30;71.66
70323;BME280;57735;56.264;43.898;2022-12-10T11:02:57;100883.13;;;-1.30;71.76
70323;BME280;57735;56.264;43.898;2022-12-10T11:05:31;100885.81;;;-1.32;71.59
70323;BME280;57735;56.264;43.898;2022-12-10T11:08:13;100878.03;;;-1.33;71.57
70323;BME280;57735;56.264;43.898;2022-12-10T11:10:58;100878.69;;;-1.28;72.07
70323;BME280;57735;56.264;43.898;2022-12-10T11:13:34;100875.88;;;-1.24;71.80
70323;BME280;57735;56.264;43.898;2022-12-10T11:19:05;100885.44;;;-1.23;71.82
70323;BME280;57735;56.264;43.898;2022-12-10T11:21:36;100893.41;;;-1.26;71.92
70323;BME280;57735;56.264;43.898;2022-12-10T11:24:12;100893.53;;;-1.29;71.98
70323;BME280;57735;56.264;43.898;2022-12-10T11:27:04;100905.69;;;-1.28;71.97
70323;BME280;57735;56.264;43.898;2022-12-10T11:32:46;100908.25;;;-1.26;72.41
70323;BME280;57735;56.264;43.898;2022-12-10T11:35:24;100898.75;;;-1.29;72.42
70323;BME280;57735;56.264;43.898;2022-12-10T11:38:11;100891.91;;;-1.31;72.47
70323;BME280;57735;56.264;43.898;2022-12-10T11:40:56;100893.66;;;-1.32;72.89
70323;BME280;57735;56.264;43.898;2022-12-10T11:49:00;100892.50;;;-1.25;72.82
70323;BME280;57735;56.264;43.898;2022-12-10T11:54:47;100911.72;;;-1.26;72.96
70323;BME280;57735;56.264;43.898;2022-12-10T12:11:08;100913.47;;;-1.26;72.96
70323;BME280;57735;56.264;43.898;2022-12-10T12:17:04;100904.66;;;-1.24;73.30
70323;BME280;57735;56.264;43.898;2022-12-10T12:19:42;100905.44;;;-1.22;72.91
70323;BME280;57735;56.264;43.898;2022-12-10T12:22:26;100904.78;;;-1.27;72.73
70323;BME280;57735;56.264;43.898;2022-12-10T12:27:43;100901.44;;;-1.30;73.01
70323;BME280;57735;56.264;43.898;2022-12-10T12:30:21;100901.50;;;-1.32;73.13
70323;BME280;57735;56.264;43.898;2022-12-10T12:33:04;100908.66;;;-1.35;73.26
70323;BME280;57735;56.264;43.898;2022-12-10T12:35:42;100899.09;;;-1.36;73.15
70323;BME280;57735;56.264;43.898;2022-12-10T12:38:41;100915.50;;;-1.33;73.56
70323;BME280;57735;56.264;43.898;2022-12-10T12:41:47;100926.56;;;-1.26;73.35
70323;BME280;57735;56.264;43.898;2022-12-10T12:47:15;100918.59;;;-1.23;73.21
70323;BME280;57735;56.264;43.898;2022-12-10T12:49:47;100920.91;;;-1.17;73.50
70323;BME280;57735;56.264;43.898;2022-12-10T12:54:54;100911.16;;;-1.14;73.64
70323;BME280;57735;56.264;43.898;2022-12-10T12:57:44;100918.88;;;-1.11;73.56
70323;BME280;57735;56.264;43.898;2022-12-10T13:00:19;100911.03;;;-1.11;74.02
70323;BME280;57735;56.264;43.898;2022-12-10T13:05:49;100911.03;;;-1.11;74.06
70323;BME280;57735;56.264;43.898;2022-12-10T13:22:12;100899.16;;;-1.18;74.78
70323;BME280;57735;56.264;43.898;2022-12-10T13:25:14;100906.00;;;-1.15;74.78
70323;BME280;57735;56.264;43.898;2022-12-10T13:27:58;100900.00;;;-1.17;74.99
70323;BME280;57735;56.264;43.898;2022-12-10T13:39:52;100893.28;;;-1.23;74.76
70323;BME280;57735;56.264;43.898;2022-12-10T13:42:30;100890.66;;;-1.23;75.00
70323;BME280;57735;56.264;43.898;2022-12-10T13:48:25;100876.53;;;-1.19;74.70
70323;BME280;57735;56.264;43.898;2022-12-10T13:51:08;100881.63;;;-1.16;74.74
70323;BME280;57735;56.264;43.898;2022-12-10T13:53:56;100890.38;;;-1.17;74.71
70323;BME280;57735;56.264;43.898;2022-12-10T13:56:56;100879.00;;;-1.16;74.63
70323;BME280;57735;56.264;43.898;2022-12-10T14:05:46;100878.81;;;-1.11;74.92
70323;BME280;57735;56.264;43.898;2022-12-10T14:08:26;100872.59;;;-1.09;74.84
70323;BME280;57735;56.264;43.898;2022-12-10T14:10:58;100872.53;;;-1.07;74.92
70323;BME280;57735;56.264;43.898;2022-12-10T14:13:37;100866.19;;;-1.01;74.89
70323;BME280;57735;56.264;43.898;2022-12-10T14:16:13;100864.31;;;-0.99;74.72
70323;BME280;57735;56.264;43.898;2022-12-10T14:18:53;100870.41;;;-0.99;74.64
70323;BME280;57735;56.264;43.898;2022-12-10T14:21:27;100861.63;;;-0.98;74.71
70323;BME280;57735;56.264;43.898;2022-12-10T14:24:02;100862.50;;;-0.97;74.66
70323;BME280;57735;56.264;43.898;2022-12-10T14:26:35;100852.88;;;-0.97;74.70
70323;BME280;57735;56.264;43.898;2022-12-10T14:31:42;100842.47;;;-0.98;74.71
70323;BME280;57735;56.264;43.898;2022-12-10T14:34:18;100846.00;;;-0.99;74.63
70323;BME280;57735;56.264;43.898;2022-12-10T14:36:54;100838.25;;;-1.01;74.81
70323;BME280;57735;56.264;43.898;2022-12-10T14:39:31;100838.94;;;-0.97;74.59
70323;BME280;57735;56.264;43.898;2022-12-10T14:42:05;100837.25;;;-0.98;74.63
70323;BME280;57735;56.264;43.898;2022-12-10T14:44:38;100840.72;;;-0.98;74.80
70323;BME280;57735;56.264;43.898;2022-12-10T14:47:22;100836.41;;;-0.99;74.72
70323;BME280;57735;56.264;43.898;2022-12-10T14:49:54;100840.66;;;-0.96;74.79
70323;BME280;57735;56.264;43.898;2022-12-10T14:52:32;100837.47;;;-1.03;74.96
70323;BME280;57735;56.264;43.898;2022-12-10T14:55:06;100832.44;;;-1.08;75.07
70323;BME280;57735;56.264;43.898;2022-12-10T14:57:44;100840.09;;;-1.03;75.13